sensor_id;sensor_type;location;lat;lon;timestamp;P1;durP1;ratioP1;P2;durP2;ratioP2
47155;SDS011;32908;52.344;16.858;2023-04-25T00:00:22;7.10;;;3.90;;
47155;SDS011;32908;52.344;16.858;2023-04-25T00:03:10;5.90;;;3.30;;
47155;SDS011;32908;52.344;16.858;2023-04-25T00:05:38;8.00;;;4.10;;
47155;SDS011;32908;52.344;16.858;2023-04-25T00:08:06;7.80;;;4.30;;
47155;SDS011;32908;52.344;16.858;2023-04-25T00:10:34;6.50;;;4.10;;
47155;SDS011;32908;52.344;16.858;2023-04-25T00:13:02;7.30;;;4.50;;
47155;SDS011;32908;52.344;16.858;2023-04-25T00:15:30;7.80;;;4.80;;
47155;SDS011;32908;52.344;16.858;2023-04-25T00:17:58;8.70;;;4.70;;
47155;SDS011;32908;52.344;16.858;2023-04-25T00:20:26;7.70;;;3.70;;
47155;SDS011;32908;52.344;16.858;2023-04-25T00:22:54;14.20;;;6.30;;
47155;SDS011;32908;52.344;16.858;2023-04-25T00:25:22;18.90;;;7.90;;
47155;SDS011;32908;52.344;16.858;2023-04-25T00:27:50;16.10;;;8.10;;
47155;SDS011;32908;52.344;16.858;2023-04-25T00:30:18;12.30;;;4.60;;
47155;SDS011;32908;52.344;16.858;2023-04-25T00:32:46;8.80;;;3.20;;
47155;SDS011;32908;52.344;16.858;2023-04-25T00:35:16;4.00;;;2.80;;
47155;SDS011;32908;52.344;16.858;2023-04-25T00:37:44;4.10;;;3.50;;
47155;SDS011;32908;52.344;16.858;2023-04-25T00:40:12;5.30;;;3.70;;
47155;SDS011;32908;52.344;16.858;2023-04-25T00:42:40;3.90;;;2.60;;
47155;SDS011;32908;52.344;16.858;2023-04-25T00:45:09;3.90;;;2.90;;
47155;SDS011;32908;52.344;16.858;2023-04-25T00:47:40;3.70;;;2.60;;
47155;SDS011;32908;52.344;16.858;2023-04-25T00:50:09;2.10;;;1.90;;
47155;SDS011;32908;52.344;16.858;2023-04-25T00:52:37;3.50;;;1.90;;
47155;SDS011;32908;52.344;16.858;2023-04-25T00:55:07;4.80;;;2.20;;
47155;SDS011;32908;52.344;16.858;2023-04-25T00:57:35;3.00;;;1.80;;
47155;SDS011;32908;52.344;16.858;2023-04-25T01:00:05;2.50;;;1.60;;
47155;SDS011;32908;52.344;16.858;2023-04-25T01:02:35;2.50;;;1.80;;
47155;SDS011;32908;52.344;16.858;2023-04-25T01:05:04;2.50;;;1.60;;
47155;SDS011;32908;52.344;16.858;2023-04-25T01:07:33;4.30;;;1.70;;
47155;SDS011;32908;52.344;16.858;2023-04-25T01:10:01;2.50;;;1.50;;
47155;SDS011;32908;52.344;16.858;2023-04-25T01:12:31;2.80;;;1.40;;
47155;SDS011;32908;52.344;16.858;2023-04-25T01:14:59;1.50;;;1.20;;
47155;SDS011;32908;52.344;16.858;2023-04-25T01:17:27;1.60;;;1.30;;
47155;SDS011;32908;52.344;16.858;2023-04-25T01:19:55;1.40;;;1.30;;
47155;SDS011;32908;52.344;16.858;2023-04-25T01:22:23;1.60;;;1.50;;
47155;SDS011;32908;52.344;16.858;2023-04-25T01:24:51;1.60;;;1.40;;
47155;SDS011;32908;52.344;16.858;2023-04-25T01:27:19;1.60;;;1.50;;
47155;SDS011;32908;52.344;16.858;2023-04-25T01:29:47;1.60;;;1.50;;
47155;SDS011;32908;52.344;16.858;2023-04-25T01:32:16;1.40;;;1.30;;
47155;SDS011;32908;52.344;16.858;2023-04-25T01:34:44;1.40;;;1.30;;
47155;SDS011;32908;52.344;16.858;2023-04-25T01:37:12;2.40;;;1.30;;
47155;SDS011;32908;52.344;16.858;2023-04-25T01:39:41;2.90;;;1.60;;
47155;SDS011;32908;52.344;16.858;2023-04-25T01:42:09;1.40;;;1.30;;
47155;SDS011;32908;52.344;16.858;2023-04-25T01:44:37;2.00;;;1.40;;
47155;SDS011;32908;52.344;16.858;2023-04-25T01:47:05;1.60;;;1.30;;
47155;SDS011;32908;52.344;16.858;2023-04-25T01:49:33;1.80;;;1.40;;
47155;SDS011;32908;52.344;16.858;2023-04-25T01:52:01;2.60;;;1.20;;
47155;SDS011;32908;52.344;16.858;2023-04-25T01:54:29;1.60;;;1.50;;
47155;SDS011;32908;52.344;16.858;2023-04-25T01:56:57;1.70;;;1.60;;
47155;SDS011;32908;52.344;16.858;2023-04-25T01:59:26;1.60;;;1.50;;
47155;SDS011;32908;52.344;16.858;2023-04-25T02:01:54;3.00;;;1.80;;
47155;SDS011;32908;52.344;16.858;2023-04-25T02:04:22;1.80;;;1.50;;
47155;SDS011;32908;52.344;16.858;2023-04-25T02:06:50;2.70;;;1.60;;
47155;SDS011;32908;52.344;16.858;2023-04-25T02:09:18;2.20;;;2.00;;
47155;SDS011;32908;52.344;16.858;2023-04-25T02:11:46;3.20;;;2.10;;
47155;SDS011;32908;52.344;16.858;2023-04-25T02:14:14;3.70;;;2.20;;
47155;SDS011;32908;52.344;16.858;2023-04-25T02:16:42;3.10;;;2.20;;
47155;SDS011;32908;52.344;16.858;2023-04-25T02:19:10;3.60;;;1.80;;
47155;SDS011;32908;52.344;16.858;2023-04-25T02:21:38;3.00;;;1.70;;
47155;SDS011;32908;52.344;16.858;2023-04-25T02:24:07;5.20;;;2.10;;
47155;SDS011;32908;52.344;16.858;2023-04-25T02:26:35;2.80;;;2.30;;
47155;SDS011;32908;52.344;16.858;2023-04-25T02:29:03;2.50;;;1.80;;
47155;SDS011;32908;52.344;16.858;2023-04-25T02:31:31;4.00;;;2.20;;
47155;SDS011;32908;52.344;16.858;2023-04-25T02:33:59;3.60;;;2.30;;
47155;SDS011;32908;52.344;16.858;2023-04-25T02:36:28;3.20;;;2.20;;
47155;SDS011;32908;52.344;16.858;2023-04-25T02:38:58;3.90;;;2.10;;
47155;SDS011;32908;52.344;16.858;2023-04-25T02:41:26;3.80;;;2.30;;
47155;SDS011;32908;52.344;16.858;2023-04-25T02:43:54;4.10;;;2.40;;
47155;SDS011;32908;52.344;16.858;2023-04-25T02:46:22;4.00;;;2.40;;
47155;SDS011;32908;52.344;16.858;2023-04-25T02:48:50;4.20;;;2.40;;
47155;SDS011;32908;52.344;16.858;2023-04-25T02:51:18;3.30;;;2.30;;
47155;SDS011;32908;52.344;16.858;2023-04-25T02:53:46;4.30;;;2.30;;
47155;SDS011;32908;52.344;16.858;2023-04-25T02:56:14;5.50;;;2.80;;
47155;SDS011;32908;52.344;16.858;2023-04-25T02:58:42;3.90;;;2.50;;
47155;SDS011;32908;52.344;16.858;2023-04-25T03:01:11;2.40;;;2.20;;
47155;SDS011;32908;52.344;16.858;2023-04-25T03:03:39;4.30;;;2.90;;
47155;SDS011;32908;52.344;16.858;2023-04-25T03:06:07;3.90;;;2.80;;
47155;SDS011;32908;52.344;16.858;2023-04-25T03:08:35;4.80;;;2.70;;
47155;SDS011;32908;52.344;16.858;2023-04-25T03:11:03;3.90;;;2.70;;
47155;SDS011;32908;52.344;16.858;2023-04-25T03:13:31;6.00;;;3.70;;
47155;SDS011;32908;52.344;16.858;2023-04-25T03:15:59;5.60;;;3.20;;
47155;SDS011;32908;52.344;16.858;2023-04-25T03:18:27;6.90;;;3.00;;
47155;SDS011;32908;52.344;16.858;2023-04-25T03:20:55;5.00;;;3.20;;
47155;SDS011;32908;52.344;16.858;2023-04-25T03:23:23;4.60;;;3.30;;
47155;SDS011;32908;52.344;16.858;2023-04-25T03:25:51;4.40;;;3.30;;
47155;SDS011;32908;52.344;16.858;2023-04-25T03:28:19;5.20;;;3.20;;
47155;SDS011;32908;52.344;16.858;2023-04-25T03:30:47;8.70;;;3.60;;
47155;SDS011;32908;52.344;16.858;2023-04-25T03:33:14;4.00;;;2.90;;
47155;SDS011;32908;52.344;16.858;2023-04-25T03:35:42;5.80;;;3.60;;
47155;SDS011;32908;52.344;16.858;2023-04-25T03:38:10;5.00;;;3.10;;
47155;SDS011;32908;52.344;16.858;2023-04-25T03:40:38;5.50;;;3.60;;
47155;SDS011;32908;52.344;16.858;2023-04-25T03:43:06;3.80;;;3.20;;
47155;SDS011;32908;52.344;16.858;2023-04-25T03:45:34;4.80;;;3.70;;
47155;SDS011;32908;52.344;16.858;2023-04-25T03:48:03;6.00;;;3.50;;
47155;SDS011;32908;52.344;16.858;2023-04-25T03:50:31;9.10;;;3.70;;
47155;SDS011;32908;52.344;16.858;2023-04-25T03:52:59;5.50;;;3.50;;
47155;SDS011;32908;52.344;16.858;2023-04-25T03:55:27;4.70;;;3.30;;
47155;SDS011;32908;52.344;16.858;2023-04-25T03:57:55;3.60;;;3.10;;
47155;SDS011;32908;52.344;16.858;2023-04-25T04:00:24;4.50;;;3.50;;
47155;SDS011;32908;52.344;16.858;2023-04-25T04:02:52;4.30;;;3.30;;
47155;SDS011;32908;52.344;16.858;2023-04-25T04:05:20;5.50;;;3.90;;
47155;SDS011;32908;52.344;16.858;2023-04-25T04:07:49;5.70;;;3.80;;
47155;SDS011;32908;52.344;16.858;2023-04-25T04:10:17;6.60;;;4.10;;
47155;SDS011;32908;52.344;16.858;2023-04-25T04:12:45;5.30;;;3.50;;
47155;SDS011;32908;52.344;16.858;2023-04-25T04:15:13;4.80;;;3.50;;
47155;SDS011;32908;52.344;16.858;2023-04-25T04:17:41;5.40;;;3.70;;
47155;SDS011;32908;52.344;16.858;2023-04-25T04:20:09;6.20;;;3.90;;
47155;SDS011;32908;52.344;16.858;2023-04-25T04:22:37;4.40;;;3.70;;
47155;SDS011;32908;52.344;16.858;2023-04-25T04:25:06;6.30;;;3.60;;
47155;SDS011;32908;52.344;16.858;2023-04-25T04:27:36;7.60;;;3.60;;
47155;SDS011;32908;52.344;16.858;2023-04-25T04:30:05;5.40;;;3.50;;
47155;SDS011;32908;52.344;16.858;2023-04-25T04:32:34;3.70;;;3.30;;
47155;SDS011;32908;52.344;16.858;2023-04-25T04:35:04;6.20;;;3.40;;
47155;SDS011;32908;52.344;16.858;2023-04-25T04:37:33;5.80;;;3.30;;
47155;SDS011;32908;52.344;16.858;2023-04-25T04:40:03;6.20;;;3.80;;
47155;SDS011;32908;52.344;16.858;2023-04-25T04:42:33;6.00;;;3.70;;
47155;SDS011;32908;52.344;16.858;2023-04-25T04:45:02;5.50;;;3.70;;
47155;SDS011;32908;52.344;16.858;2023-04-25T04:47:31;8.00;;;3.70;;
47155;SDS011;32908;52.344;16.858;2023-04-25T04:50:00;4.80;;;4.10;;
47155;SDS011;32908;52.344;16.858;2023-04-25T04:52:28;4.20;;;3.80;;
47155;SDS011;32908;52.344;16.858;2023-04-25T04:54:56;4.90;;;3.60;;
47155;SDS011;32908;52.344;16.858;2023-04-25T04:57:24;7.70;;;3.80;;
47155;SDS011;32908;52.344;16.858;2023-04-25T04:59:53;3.80;;;3.50;;
47155;SDS011;32908;52.344;16.858;2023-04-25T05:02:21;4.90;;;3.80;;
47155;SDS011;32908;52.344;16.858;2023-04-25T05:04:49;5.90;;;4.10;;
47155;SDS011;32908;52.344;16.858;2023-04-25T05:07:17;5.80;;;3.50;;
47155;SDS011;32908;52.344;16.858;2023-04-25T05:09:46;4.10;;;3.40;;
47155;SDS011;32908;52.344;16.858;2023-04-25T05:12:14;6.20;;;3.80;;
47155;SDS011;32908;52.344;16.858;2023-04-25T05:14:41;6.20;;;3.70;;
47155;SDS011;32908;52.344;16.858;2023-04-25T05:17:09;4.30;;;3.60;;
47155;SDS011;32908;52.344;16.858;2023-04-25T05:19:37;6.30;;;3.80;;
47155;SDS011;32908;52.344;16.858;2023-04-25T05:22:05;5.20;;;3.60;;
47155;SDS011;32908;52.344;16.858;2023-04-25T05:24:33;5.80;;;3.20;;
47155;SDS011;32908;52.344;16.858;2023-04-25T05:27:01;4.50;;;3.20;;
47155;SDS011;32908;52.344;16.858;2023-04-25T05:29:29;9.10;;;3.30;;
47155;SDS011;32908;52.344;16.858;2023-04-25T05:31:57;5.50;;;3.20;;
47155;SDS011;32908;52.344;16.858;2023-04-25T05:34:25;4.20;;;3.40;;
47155;SDS011;32908;52.344;16.858;2023-04-25T05:36:53;6.30;;;3.60;;
47155;SDS011;32908;52.344;16.858;2023-04-25T05:39:21;6.40;;;3.70;;
47155;SDS011;32908;52.344;16.858;2023-04-25T05:41:49;5.10;;;3.70;;
47155;SDS011;32908;52.344;16.858;2023-04-25T05:44:17;4.30;;;3.50;;
47155;SDS011;32908;52.344;16.858;2023-04-25T05:46:46;6.30;;;3.60;;
47155;SDS011;32908;52.344;16.858;2023-04-25T05:49:14;5.40;;;3.70;;
47155;SDS011;32908;52.344;16.858;2023-04-25T05:51:42;6.60;;;3.80;;
47155;SDS011;32908;52.344;16.858;2023-04-25T05:54:10;6.40;;;3.70;;
47155;SDS011;32908;52.344;16.858;2023-04-25T05:56:38;6.30;;;3.10;;
47155;SDS011;32908;52.344;16.858;2023-04-25T05:59:06;5.20;;;3.00;;
47155;SDS011;32908;52.344;16.858;2023-04-25T06:01:34;5.00;;;3.50;;
47155;SDS011;32908;52.344;16.858;2023-04-25T06:04:02;4.20;;;3.50;;
47155;SDS011;32908;52.344;16.858;2023-04-25T06:06:30;4.50;;;3.00;;
47155;SDS011;32908;52.344;16.858;2023-04-25T06:08:58;5.50;;;3.60;;
47155;SDS011;32908;52.344;16.858;2023-04-25T06:11:26;4.90;;;3.30;;
47155;SDS011;32908;52.344;16.858;2023-04-25T06:13:54;7.00;;;3.80;;
47155;SDS011;32908;52.344;16.858;2023-04-25T06:16:22;8.30;;;3.70;;
47155;SDS011;32908;52.344;16.858;2023-04-25T06:18:52;6.90;;;3.20;;
47155;SDS011;32908;52.344;16.858;2023-04-25T06:21:20;5.30;;;3.60;;
47155;SDS011;32908;52.344;16.858;2023-04-25T06:23:48;7.30;;;3.60;;
47155;SDS011;32908;52.344;16.858;2023-04-25T06:26:16;8.00;;;3.30;;
47155;SDS011;32908;52.344;16.858;2023-04-25T06:28:44;9.10;;;3.80;;
47155;SDS011;32908;52.344;16.858;2023-04-25T06:31:12;7.50;;;3.90;;
47155;SDS011;32908;52.344;16.858;2023-04-25T06:33:39;8.20;;;4.50;;
47155;SDS011;32908;52.344;16.858;2023-04-25T06:36:08;9.20;;;4.20;;
47155;SDS011;32908;52.344;16.858;2023-04-25T06:38:36;10.50;;;4.80;;
47155;SDS011;32908;52.344;16.858;2023-04-25T06:41:04;9.60;;;4.80;;
47155;SDS011;32908;52.344;16.858;2023-04-25T06:43:32;6.70;;;4.00;;
47155;SDS011;32908;52.344;16.858;2023-04-25T06:45:59;9.80;;;5.10;;
47155;SDS011;32908;52.344;16.858;2023-04-25T06:48:27;8.60;;;5.00;;
47155;SDS011;32908;52.344;16.858;2023-04-25T06:50:55;8.90;;;5.00;;
47155;SDS011;32908;52.344;16.858;2023-04-25T06:53:23;9.00;;;3.70;;
47155;SDS011;32908;52.344;16.858;2023-04-25T06:55:51;9.60;;;3.90;;
47155;SDS011;32908;52.344;16.858;2023-04-25T06:58:19;8.60;;;4.10;;
47155;SDS011;32908;52.344;16.858;2023-04-25T07:00:47;7.20;;;4.40;;
47155;SDS011;32908;52.344;16.858;2023-04-25T07:03:15;6.90;;;4.00;;
47155;SDS011;32908;52.344;16.858;2023-04-25T07:05:43;8.20;;;4.10;;
47155;SDS011;32908;52.344;16.858;2023-04-25T07:08:12;6.40;;;3.80;;
47155;SDS011;32908;52.344;16.858;2023-04-25T07:10:40;6.40;;;3.50;;
47155;SDS011;32908;52.344;16.858;2023-04-25T07:13:08;6.80;;;3.80;;
47155;SDS011;32908;52.344;16.858;2023-04-25T07:15:36;5.90;;;3.40;;
47155;SDS011;32908;52.344;16.858;2023-04-25T07:18:04;8.50;;;3.80;;
47155;SDS011;32908;52.344;16.858;2023-04-25T07:20:32;6.50;;;4.00;;
47155;SDS011;32908;52.344;16.858;2023-04-25T07:23:00;8.80;;;4.10;;
47155;SDS011;32908;52.344;16.858;2023-04-25T07:25:28;5.90;;;3.40;;
47155;SDS011;32908;52.344;16.858;2023-04-25T07:27:56;10.40;;;4.10;;
47155;SDS011;32908;52.344;16.858;2023-04-25T07:30:24;6.00;;;3.50;;
47155;SDS011;32908;52.344;16.858;2023-04-25T07:32:52;4.50;;;3.30;;
47155;SDS011;32908;52.344;16.858;2023-04-25T07:35:20;9.70;;;4.30;;
47155;SDS011;32908;52.344;16.858;2023-04-25T07:37:48;8.10;;;3.90;;
47155;SDS011;32908;52.344;16.858;2023-04-25T07:40:16;6.40;;;3.70;;
47155;SDS011;32908;52.344;16.858;2023-04-25T07:42:44;6.50;;;3.60;;
47155;SDS011;32908;52.344;16.858;2023-04-25T07:45:12;4.90;;;3.40;;
47155;SDS011;32908;52.344;16.858;2023-04-25T07:47:40;7.00;;;3.60;;
47155;SDS011;32908;52.344;16.858;2023-04-25T07:50:09;4.60;;;3.40;;
47155;SDS011;32908;52.344;16.858;2023-04-25T07:52:37;7.00;;;4.00;;
47155;SDS011;32908;52.344;16.858;2023-04-25T07:59:55;6.40;;;3.60;;
47155;SDS011;32908;52.344;16.858;2023-04-25T08:02:23;4.90;;;3.60;;
47155;SDS011;32908;52.344;16.858;2023-04-25T08:04:54;7.00;;;3.60;;
47155;SDS011;32908;52.344;16.858;2023-04-25T08:07:22;7.20;;;4.20;;
47155;SDS011;32908;52.344;16.858;2023-04-25T08:09:50;7.10;;;4.40;;
47155;SDS011;32908;52.344;16.858;2023-04-25T08:12:18;9.20;;;4.00;;
47155;SDS011;32908;52.344;16.858;2023-04-25T08:14:46;6.10;;;3.60;;
47155;SDS011;32908;52.344;16.858;2023-04-25T08:17:14;4.60;;;3.90;;
47155;SDS011;32908;52.344;16.858;2023-04-25T08:19:42;8.30;;;4.10;;
47155;SDS011;32908;52.344;16.858;2023-04-25T08:22:10;6.90;;;4.40;;
47155;SDS011;32908;52.344;16.858;2023-04-25T08:24:39;7.30;;;4.00;;
47155;SDS011;32908;52.344;16.858;2023-04-25T08:27:06;6.20;;;4.10;;
47155;SDS011;32908;52.344;16.858;2023-04-25T08:29:34;6.20;;;3.90;;
47155;SDS011;32908;52.344;16.858;2023-04-25T08:32:02;7.20;;;4.10;;
47155;SDS011;32908;52.344;16.858;2023-04-25T08:34:30;6.00;;;4.40;;
47155;SDS011;32908;52.344;16.858;2023-04-25T08:36:58;6.40;;;4.20;;
47155;SDS011;32908;52.344;16.858;2023-04-25T08:39:26;6.00;;;3.90;;
47155;SDS011;32908;52.344;16.858;2023-04-25T08:41:54;5.40;;;4.40;;
47155;SDS011;32908;52.344;16.858;2023-04-25T08:44:23;8.50;;;4.60;;
47155;SDS011;32908;52.344;16.858;2023-04-25T08:46:51;6.20;;;4.40;;
47155;SDS011;32908;52.344;16.858;2023-04-25T08:49:19;6.50;;;4.20;;
47155;SDS011;32908;52.344;16.858;2023-04-25T08:51:47;5.90;;;3.60;;
47155;SDS011;32908;52.344;16.858;2023-04-25T08:54:17;6.90;;;3.80;;
47155;SDS011;32908;52.344;16.858;2023-04-25T08:56:47;6.90;;;4.30;;
47155;SDS011;32908;52.344;16.858;2023-04-25T08:59:15;7.00;;;4.10;;
47155;SDS011;32908;52.344;16.858;2023-04-25T09:01:44;5.70;;;4.00;;
47155;SDS011;32908;52.344;16.858;2023-04-25T09:04:12;6.60;;;3.70;;
47155;SDS011;32908;52.344;16.858;2023-04-25T09:06:41;6.60;;;3.20;;
47155;SDS011;32908;52.344;16.858;2023-04-25T09:09:09;4.30;;;3.10;;
47155;SDS011;32908;52.344;16.858;2023-04-25T09:11:38;5.70;;;3.10;;
47155;SDS011;32908;52.344;16.858;2023-04-25T09:14:13;6.30;;;3.00;;
47155;SDS011;32908;52.344;16.858;2023-04-25T09:16:57;5.80;;;3.30;;
47155;SDS011;32908;52.344;16.858;2023-04-25T09:19:26;3.90;;;3.30;;
47155;SDS011;32908;52.344;16.858;2023-04-25T09:21:55;7.10;;;4.10;;
47155;SDS011;32908;52.344;16.858;2023-04-25T09:24:33;5.90;;;4.10;;
47155;SDS011;32908;52.344;16.858;2023-04-25T09:27:05;6.30;;;4.70;;
47155;SDS011;32908;52.344;16.858;2023-04-25T09:29:34;5.30;;;4.30;;
47155;SDS011;32908;52.344;16.858;2023-04-25T09:32:17;6.40;;;4.50;;
47155;SDS011;32908;52.344;16.858;2023-04-25T09:34:47;6.30;;;4.30;;
47155;SDS011;32908;52.344;16.858;2023-04-25T09:37:20;7.30;;;4.10;;
47155;SDS011;32908;52.344;16.858;2023-04-25T09:39:49;4.60;;;3.60;;
47155;SDS011;32908;52.344;16.858;2023-04-25T09:42:18;7.60;;;3.70;;
47155;SDS011;32908;52.344;16.858;2023-04-25T09:44:47;4.50;;;3.50;;
47155;SDS011;32908;52.344;16.858;2023-04-25T09:47:16;7.20;;;4.10;;
47155;SDS011;32908;52.344;16.858;2023-04-25T09:49:44;3.50;;;3.20;;
47155;SDS011;32908;52.344;16.858;2023-04-25T09:52:14;5.90;;;3.40;;
47155;SDS011;32908;52.344;16.858;2023-04-25T09:54:43;6.90;;;3.20;;
47155;SDS011;32908;52.344;16.858;2023-04-25T09:57:12;6.10;;;3.60;;
47155;SDS011;32908;52.344;16.858;2023-04-25T09:59:43;4.30;;;3.30;;
47155;SDS011;32908;52.344;16.858;2023-04-25T10:02:13;6.00;;;3.40;;
47155;SDS011;32908;52.344;16.858;2023-04-25T10:04:42;6.20;;;3.20;;
47155;SDS011;32908;52.344;16.858;2023-04-25T10:07:14;5.60;;;3.30;;
47155;SDS011;32908;52.344;16.858;2023-04-25T10:09:42;5.90;;;3.40;;
47155;SDS011;32908;52.344;16.858;2023-04-25T10:12:12;4.40;;;3.00;;
47155;SDS011;32908;52.344;16.858;2023-04-25T10:14:40;4.80;;;3.10;;
47155;SDS011;32908;52.344;16.858;2023-04-25T10:17:08;3.60;;;2.70;;
47155;SDS011;32908;52.344;16.858;2023-04-25T10:19:38;9.00;;;3.20;;
47155;SDS011;32908;52.344;16.858;2023-04-25T10:22:07;5.90;;;3.60;;
47155;SDS011;32908;52.344;16.858;2023-04-25T10:24:36;8.50;;;3.40;;
47155;SDS011;32908;52.344;16.858;2023-04-25T10:27:04;7.20;;;2.90;;
47155;SDS011;32908;52.344;16.858;2023-04-25T10:29:32;5.40;;;3.20;;
47155;SDS011;32908;52.344;16.858;2023-04-25T10:32:00;7.70;;;3.20;;
47155;SDS011;32908;52.344;16.858;2023-04-25T10:34:38;3.80;;;2.60;;
47155;SDS011;32908;52.344;16.858;2023-04-25T10:37:09;7.00;;;2.80;;
47155;SDS011;32908;52.344;16.858;2023-04-25T10:39:38;6.30;;;3.10;;
47155;SDS011;32908;52.344;16.858;2023-04-25T10:42:07;4.00;;;2.50;;
47155;SDS011;32908;52.344;16.858;2023-04-25T10:44:36;4.50;;;2.50;;
47155;SDS011;32908;52.344;16.858;2023-04-25T10:47:06;4.20;;;2.40;;
47155;SDS011;32908;52.344;16.858;2023-04-25T10:49:35;7.70;;;3.10;;
47155;SDS011;32908;52.344;16.858;2023-04-25T10:52:16;5.30;;;2.80;;
47155;SDS011;32908;52.344;16.858;2023-04-25T10:54:48;4.20;;;2.90;;
47155;SDS011;32908;52.344;16.858;2023-04-25T10:57:32;3.50;;;2.60;;
47155;SDS011;32908;52.344;16.858;2023-04-25T11:00:06;3.90;;;2.60;;
47155;SDS011;32908;52.344;16.858;2023-04-25T11:02:42;4.90;;;2.70;;
47155;SDS011;32908;52.344;16.858;2023-04-25T11:05:16;5.30;;;2.50;;
47155;SDS011;32908;52.344;16.858;2023-04-25T11:07:50;7.70;;;3.00;;
47155;SDS011;32908;52.344;16.858;2023-04-25T11:10:20;5.80;;;2.90;;
47155;SDS011;32908;52.344;16.858;2023-04-25T11:12:53;4.50;;;2.60;;
47155;SDS011;32908;52.344;16.858;2023-04-25T11:15:21;4.30;;;2.90;;
47155;SDS011;32908;52.344;16.858;2023-04-25T11:17:51;4.30;;;3.10;;
47155;SDS011;32908;52.344;16.858;2023-04-25T11:20:19;4.40;;;2.70;;
47155;SDS011;32908;52.344;16.858;2023-04-25T11:22:47;5.60;;;2.90;;
47155;SDS011;32908;52.344;16.858;2023-04-25T11:25:15;7.90;;;2.90;;
47155;SDS011;32908;52.344;16.858;2023-04-25T11:27:49;3.80;;;3.00;;
47155;SDS011;32908;52.344;16.858;2023-04-25T11:30:18;8.50;;;2.90;;
47155;SDS011;32908;52.344;16.858;2023-04-25T11:32:47;6.70;;;2.70;;
47155;SDS011;32908;52.344;16.858;2023-04-25T11:35:16;6.40;;;3.50;;
47155;SDS011;32908;52.344;16.858;2023-04-25T11:37:44;6.50;;;3.30;;
47155;SDS011;32908;52.344;16.858;2023-04-25T11:40:12;4.00;;;2.80;;
47155;SDS011;32908;52.344;16.858;2023-04-25T11:42:43;6.20;;;2.90;;
47155;SDS011;32908;52.344;16.858;2023-04-25T11:45:12;4.10;;;2.90;;
47155;SDS011;32908;52.344;16.858;2023-04-25T11:47:40;4.80;;;2.80;;
47155;SDS011;32908;52.344;16.858;2023-04-25T11:50:09;7.10;;;2.40;;
47155;SDS011;32908;52.344;16.858;2023-04-25T11:52:38;7.30;;;2.40;;
47155;SDS011;32908;52.344;16.858;2023-04-25T11:55:08;5.10;;;2.60;;
47155;SDS011;32908;52.344;16.858;2023-04-25T11:57:39;4.00;;;2.70;;
47155;SDS011;32908;52.344;16.858;2023-04-25T12:00:10;9.10;;;3.00;;
47155;SDS011;32908;52.344;16.858;2023-04-25T12:02:42;12.20;;;3.50;;
47155;SDS011;32908;52.344;16.858;2023-04-25T12:05:12;6.60;;;3.70;;
47155;SDS011;32908;52.344;16.858;2023-04-25T12:07:42;6.50;;;3.20;;
47155;SDS011;32908;52.344;16.858;2023-04-25T12:10:11;5.30;;;3.30;;
47155;SDS011;32908;52.344;16.858;2023-04-25T12:12:41;6.00;;;3.00;;
47155;SDS011;32908;52.344;16.858;2023-04-25T12:15:12;5.50;;;3.00;;
47155;SDS011;32908;52.344;16.858;2023-04-25T12:17:42;5.70;;;2.50;;
47155;SDS011;32908;52.344;16.858;2023-04-25T12:20:13;7.00;;;2.80;;
47155;SDS011;32908;52.344;16.858;2023-04-25T12:22:42;5.40;;;3.50;;
47155;SDS011;32908;52.344;16.858;2023-04-25T12:25:11;6.30;;;3.10;;
47155;SDS011;32908;52.344;16.858;2023-04-25T12:27:39;3.60;;;3.00;;
47155;SDS011;32908;52.344;16.858;2023-04-25T12:30:10;7.10;;;3.40;;
47155;SDS011;32908;52.344;16.858;2023-04-25T12:32:38;5.20;;;2.80;;
47155;SDS011;32908;52.344;16.858;2023-04-25T12:35:07;3.40;;;2.70;;
47155;SDS011;32908;52.344;16.858;2023-04-25T12:37:35;4.20;;;2.90;;
47155;SDS011;32908;52.344;16.858;2023-04-25T12:40:04;3.10;;;2.80;;
47155;SDS011;32908;52.344;16.858;2023-04-25T12:42:33;5.40;;;2.80;;
47155;SDS011;32908;52.344;16.858;2023-04-25T12:45:01;4.20;;;2.20;;
47155;SDS011;32908;52.344;16.858;2023-04-25T12:47:29;5.60;;;2.00;;
47155;SDS011;32908;52.344;16.858;2023-04-25T12:49:57;3.80;;;2.70;;
47155;SDS011;32908;52.344;16.858;2023-04-25T12:52:25;4.90;;;2.60;;
47155;SDS011;32908;52.344;16.858;2023-04-25T12:54:53;5.30;;;2.60;;
47155;SDS011;32908;52.344;16.858;2023-04-25T12:57:21;6.50;;;2.80;;
47155;SDS011;32908;52.344;16.858;2023-04-25T12:59:49;4.10;;;2.90;;
47155;SDS011;32908;52.344;16.858;2023-04-25T13:02:17;4.20;;;2.70;;
47155;SDS011;32908;52.344;16.858;2023-04-25T13:04:45;3.40;;;2.80;;
47155;SDS011;32908;52.344;16.858;2023-04-25T13:07:13;4.10;;;2.80;;
47155;SDS011;32908;52.344;16.858;2023-04-25T13:09:42;7.50;;;2.50;;
47155;SDS011;32908;52.344;16.858;2023-04-25T13:12:10;5.80;;;2.50;;
47155;SDS011;32908;52.344;16.858;2023-04-25T13:14:38;5.70;;;2.30;;
47155;SDS011;32908;52.344;16.858;2023-04-25T13:17:06;6.70;;;2.80;;
47155;SDS011;32908;52.344;16.858;2023-04-25T13:19:34;6.20;;;2.90;;
47155;SDS011;32908;52.344;16.858;2023-04-25T13:22:02;11.10;;;2.50;;
47155;SDS011;32908;52.344;16.858;2023-04-25T13:24:30;3.90;;;3.30;;
47155;SDS011;32908;52.344;16.858;2023-04-25T13:26:58;3.60;;;1.60;;
47155;SDS011;32908;52.344;16.858;2023-04-25T13:29:26;2.60;;;1.50;;
47155;SDS011;32908;52.344;16.858;2023-04-25T13:31:54;4.60;;;1.70;;
47155;SDS011;32908;52.344;16.858;2023-04-25T13:34:22;4.10;;;1.60;;
47155;SDS011;32908;52.344;16.858;2023-04-25T13:36:50;1.90;;;1.50;;
47155;SDS011;32908;52.344;16.858;2023-04-25T13:39:18;4.80;;;2.50;;
47155;SDS011;32908;52.344;16.858;2023-04-25T13:41:46;8.40;;;4.60;;
47155;SDS011;32908;52.344;16.858;2023-04-25T13:44:14;7.50;;;3.90;;
47155;SDS011;32908;52.344;16.858;2023-04-25T13:46:42;4.70;;;2.70;;
47155;SDS011;32908;52.344;16.858;2023-04-25T13:49:10;3.40;;;1.80;;
47155;SDS011;32908;52.344;16.858;2023-04-25T13:51:38;1.50;;;1.30;;
47155;SDS011;32908;52.344;16.858;2023-04-25T13:54:06;3.70;;;1.60;;
47155;SDS011;32908;52.344;16.858;2023-04-25T13:56:34;2.30;;;1.60;;
47155;SDS011;32908;52.344;16.858;2023-04-25T13:59:02;3.00;;;1.90;;
47155;SDS011;32908;52.344;16.858;2023-04-25T14:01:30;3.20;;;2.10;;
47155;SDS011;32908;52.344;16.858;2023-04-25T14:04:00;3.10;;;2.50;;
47155;SDS011;32908;52.344;16.858;2023-04-25T14:06:32;3.90;;;2.20;;
47155;SDS011;32908;52.344;16.858;2023-04-25T14:09:00;2.50;;;2.00;;
47155;SDS011;32908;52.344;16.858;2023-04-25T14:11:28;4.20;;;2.50;;
47155;SDS011;32908;52.344;16.858;2023-04-25T14:13:56;4.30;;;3.30;;
47155;SDS011;32908;52.344;16.858;2023-04-25T14:16:24;5.40;;;3.10;;
47155;SDS011;32908;52.344;16.858;2023-04-25T14:18:52;3.40;;;2.80;;
47155;SDS011;32908;52.344;16.858;2023-04-25T14:21:20;6.10;;;3.40;;
47155;SDS011;32908;52.344;16.858;2023-04-25T14:23:48;6.40;;;3.40;;
47155;SDS011;32908;52.344;16.858;2023-04-25T14:26:16;6.20;;;3.50;;
47155;SDS011;32908;52.344;16.858;2023-04-25T14:28:44;5.00;;;3.40;;
47155;SDS011;32908;52.344;16.858;2023-04-25T14:31:12;7.20;;;4.00;;
47155;SDS011;32908;52.344;16.858;2023-04-25T14:33:40;10.00;;;4.30;;
47155;SDS011;32908;52.344;16.858;2023-04-25T14:36:09;8.90;;;3.90;;
47155;SDS011;32908;52.344;16.858;2023-04-25T14:38:37;6.80;;;3.90;;
47155;SDS011;32908;52.344;16.858;2023-04-25T14:41:05;4.70;;;3.00;;
47155;SDS011;32908;52.344;16.858;2023-04-25T14:43:33;5.30;;;3.30;;
47155;SDS011;32908;52.344;16.858;2023-04-25T14:46:01;9.40;;;3.50;;